首页
METAR-TAF:

METAR-TAF

机场 :

波尔查诺, 意大利

纬度: 46-28N, 经度: 011-20E, 海拔: 262米

当前天气观测

该预报发布于45分钟前的13:50 UTC
风速2节,风向多变
温度 6°C
湿度 26%
气压 1042 hPa
能见度10公里或以上
1500米以下无云,无积雨云

METAR: LIPB 201350Z VRB02KT CAVOK 06/M12 Q1042 RMK MON LIB

时间: 15:35 (14:35 UTC)

预报

该预报发布于3小时和35分钟前的11:00 UTC
预报有效从20日的 12点(UTC)到 21日的 12点(UTC)
风速4节,风向多变
能见度10公里或以上
1500米以下无云,无积雨云

TAF: LIPB 201100Z 2012/2112 VRB04KT CAVOK

超过4000个机场的气象观测和天气预报(METAR&TAF报告)。

可查询的气象台以黄色和红色小点在地图上表示。

将鼠标移到小点上方,可查看气象台名称。

然后点击查看天气观测和预报。

如需切换地图:点击带黑十字的绿色按钮放大地图;点击带横线的绿色按钮缩小地图;或者点击绿色箭头查看邻近地区的地图。


METAR-TAF: